sensor_id;sensor_type;location;lat;lon;timestamp;temperature;humidity
35682;DHT22;21805;51.022;4.782;2023-07-28T00:00:08;19.50;99.90
35682;DHT22;21805;51.022;4.782;2023-07-28T00:05:05;19.50;99.90
35682;DHT22;21805;51.022;4.782;2023-07-28T00:07:32;19.40;99.90
35682;DHT22;21805;51.022;4.782;2023-07-28T00:10:01;19.50;99.90
35682;DHT22;21805;51.022;4.782;2023-07-28T00:12:26;19.40;99.90
35682;DHT22;21805;51.022;4.782;2023-07-28T00:14:52;19.50;99.90
35682;DHT22;21805;51.022;4.782;2023-07-28T00:17:17;19.60;99.90
35682;DHT22;21805;51.022;4.782;2023-07-28T00:19:43;19.60;99.90
35682;DHT22;21805;51.022;4.782;2023-07-28T00:22:09;19.60;99.90
35682;DHT22;21805;51.022;4.782;2023-07-28T00:24:34;19.50;99.90
35682;DHT22;21805;51.022;4.782;2023-07-28T00:27:00;19.60;99.90
35682;DHT22;21805;51.022;4.782;2023-07-28T00:29:27;19.60;99.90
35682;DHT22;21805;51.022;4.782;2023-07-28T00:31:55;19.60;99.90
35682;DHT22;21805;51.022;4.782;2023-07-28T00:34:21;19.60;99.90
35682;DHT22;21805;51.022;4.782;2023-07-28T00:36:51;19.50;99.90
35682;DHT22;21805;51.022;4.782;2023-07-28T00:39:18;19.50;99.90
35682;DHT22;21805;51.022;4.782;2023-07-28T00:41:45;19.60;99.90
35682;DHT22;21805;51.022;4.782;2023-07-28T00:44:14;19.60;99.90
35682;DHT22;21805;51.022;4.782;2023-07-28T00:46:44;19.60;99.90
35682;DHT22;21805;51.022;4.782;2023-07-28T00:49:10;19.60;99.90
35682;DHT22;21805;51.022;4.782;2023-07-28T00:51:42;19.70;99.90
35682;DHT22;21805;51.022;4.782;2023-07-28T00:54:09;19.70;99.90
35682;DHT22;21805;51.022;4.782;2023-07-28T00:56:35;19.70;99.90
35682;DHT22;21805;51.022;4.782;2023-07-28T00:59:00;19.60;99.90
35682;DHT22;21805;51.022;4.782;2023-07-28T01:01:26;19.70;99.90
35682;DHT22;21805;51.022;4.782;2023-07-28T01:03:53;19.60;99.90
35682;DHT22;21805;51.022;4.782;2023-07-28T01:11:21;19.60;99.90
35682;DHT22;21805;51.022;4.782;2023-07-28T01:13:49;19.60;99.90
35682;DHT22;21805;51.022;4.782;2023-07-28T01:16:15;19.50;99.90
35682;DHT22;21805;51.022;4.782;2023-07-28T01:18:41;19.60;99.90
35682;DHT22;21805;51.022;4.782;2023-07-28T01:21:08;19.60;99.90
35682;DHT22;21805;51.022;4.782;2023-07-28T01:23:39;19.50;99.90
35682;DHT22;21805;51.022;4.782;2023-07-28T01:26:12;19.50;99.90
35682;DHT22;21805;51.022;4.782;2023-07-28T01:28:40;19.50;99.90
35682;DHT22;21805;51.022;4.782;2023-07-28T01:31:07;19.60;99.90
35682;DHT22;21805;51.022;4.782;2023-07-28T01:33:33;19.60;99.90
35682;DHT22;21805;51.022;4.782;2023-07-28T01:36:00;19.60;99.90
35682;DHT22;21805;51.022;4.782;2023-07-28T01:38:26;19.60;99.90
35682;DHT22;21805;51.022;4.782;2023-07-28T01:40:52;19.60;99.90
35682;DHT22;21805;51.022;4.782;2023-07-28T01:43:18;19.60;99.90
35682;DHT22;21805;51.022;4.782;2023-07-28T01:45:45;19.60;99.90
35682;DHT22;21805;51.022;4.782;2023-07-28T01:48:10;19.60;99.90
35682;DHT22;21805;51.022;4.782;2023-07-28T01:50:38;19.60;99.90
35682;DHT22;21805;51.022;4.782;2023-07-28T01:53:06;19.60;99.90
35682;DHT22;21805;51.022;4.782;2023-07-28T01:55:41;19.60;99.90
35682;DHT22;21805;51.022;4.782;2023-07-28T01:58:07;19.60;99.90
35682;DHT22;21805;51.022;4.782;2023-07-28T02:00:34;19.60;99.90
35682;DHT22;21805;51.022;4.782;2023-07-28T02:03:00;19.60;99.90
35682;DHT22;21805;51.022;4.782;2023-07-28T02:05:29;19.60;99.90
35682;DHT22;21805;51.022;4.782;2023-07-28T02:07:55;19.60;99.90
35682;DHT22;21805;51.022;4.782;2023-07-28T02:10:22;19.60;99.90
35682;DHT22;21805;51.022;4.782;2023-07-28T02:12:47;19.60;99.90
35682;DHT22;21805;51.022;4.782;2023-07-28T02:15:13;19.60;99.90
35682;DHT22;21805;51.022;4.782;2023-07-28T02:17:38;19.70;99.90
35682;DHT22;21805;51.022;4.782;2023-07-28T02:20:04;19.70;99.90
35682;DHT22;21805;51.022;4.782;2023-07-28T02:22:30;19.60;99.90
35682;DHT22;21805;51.022;4.782;2023-07-28T02:24:56;19.50;99.90
35682;DHT22;21805;51.022;4.782;2023-07-28T02:27:21;19.60;99.90
35682;DHT22;21805;51.022;4.782;2023-07-28T02:29:49;19.60;99.90
35682;DHT22;21805;51.022;4.782;2023-07-28T02:32:15;19.60;99.90
35682;DHT22;21805;51.022;4.782;2023-07-28T02:34:40;19.50;99.90
35682;DHT22;21805;51.022;4.782;2023-07-28T02:37:06;19.60;99.90
35682;DHT22;21805;51.022;4.782;2023-07-28T02:39:31;19.50;99.90
35682;DHT22;21805;51.022;4.782;2023-07-28T02:41:57;19.60;99.90
35682;DHT22;21805;51.022;4.782;2023-07-28T02:44:23;19.60;99.90
35682;DHT22;21805;51.022;4.782;2023-07-28T02:46:48;19.60;99.90
35682;DHT22;21805;51.022;4.782;2023-07-28T02:49:14;19.60;99.90
35682;DHT22;21805;51.022;4.782;2023-07-28T02:51:39;19.60;99.90
35682;DHT22;21805;51.022;4.782;2023-07-28T02:54:05;19.60;99.90
35682;DHT22;21805;51.022;4.782;2023-07-28T02:56:31;19.70;99.90
35682;DHT22;21805;51.022;4.782;2023-07-28T02:59:00;19.70;99.90
35682;DHT22;21805;51.022;4.782;2023-07-28T03:01:26;19.70;99.90
35682;DHT22;21805;51.022;4.782;2023-07-28T03:03:51;19.70;99.90
35682;DHT22;21805;51.022;4.782;2023-07-28T03:06:17;19.70;99.90
35682;DHT22;21805;51.022;4.782;2023-07-28T03:08:42;19.70;99.90
35682;DHT22;21805;51.022;4.782;2023-07-28T03:11:08;19.70;99.90
35682;DHT22;21805;51.022;4.782;2023-07-28T03:13:33;19.70;99.90
35682;DHT22;21805;51.022;4.782;2023-07-28T03:15:59;19.70;99.90
35682;DHT22;21805;51.022;4.782;2023-07-28T03:18:31;19.70;99.90
35682;DHT22;21805;51.022;4.782;2023-07-28T03:21:00;19.70;99.90
35682;DHT22;21805;51.022;4.782;2023-07-28T03:23:26;19.80;99.90
35682;DHT22;21805;51.022;4.782;2023-07-28T03:25:52;19.70;99.90
35682;DHT22;21805;51.022;4.782;2023-07-28T03:28:17;19.70;99.90
35682;DHT22;21805;51.022;4.782;2023-07-28T03:30:43;19.70;99.90
35682;DHT22;21805;51.022;4.782;2023-07-28T03:33:09;19.70;99.90
35682;DHT22;21805;51.022;4.782;2023-07-28T03:35:35;19.70;99.90
35682;DHT22;21805;51.022;4.782;2023-07-28T03:38:01;19.60;99.90
35682;DHT22;21805;51.022;4.782;2023-07-28T03:40:26;19.60;99.90
35682;DHT22;21805;51.022;4.782;2023-07-28T03:42:52;19.50;99.90
35682;DHT22;21805;51.022;4.782;2023-07-28T03:45:18;19.60;99.90
35682;DHT22;21805;51.022;4.782;2023-07-28T03:47:43;19.60;99.90
35682;DHT22;21805;51.022;4.782;2023-07-28T03:50:09;19.70;99.90
35682;DHT22;21805;51.022;4.782;2023-07-28T03:52:34;19.60;99.90
35682;DHT22;21805;51.022;4.782;2023-07-28T03:55:01;19.70;99.90
35682;DHT22;21805;51.022;4.782;2023-07-28T03:57:27;19.70;99.90
35682;DHT22;21805;51.022;4.782;2023-07-28T03:59:52;19.70;99.90
35682;DHT22;21805;51.022;4.782;2023-07-28T04:02:18;19.70;99.90
35682;DHT22;21805;51.022;4.782;2023-07-28T04:04:44;19.70;99.90
35682;DHT22;21805;51.022;4.782;2023-07-28T04:07:09;19.70;99.90
35682;DHT22;21805;51.022;4.782;2023-07-28T04:09:35;19.70;99.90
35682;DHT22;21805;51.022;4.782;2023-07-28T04:12:00;19.70;99.90
35682;DHT22;21805;51.022;4.782;2023-07-28T04:14:27;19.70;99.90
35682;DHT22;21805;51.022;4.782;2023-07-28T04:16:53;19.70;99.90
35682;DHT22;21805;51.022;4.782;2023-07-28T04:19:20;19.80;99.90
35682;DHT22;21805;51.022;4.782;2023-07-28T04:21:48;19.80;99.90
35682;DHT22;21805;51.022;4.782;2023-07-28T04:24:14;19.80;99.90
35682;DHT22;21805;51.022;4.782;2023-07-28T04:26:39;19.70;99.90
35682;DHT22;21805;51.022;4.782;2023-07-28T04:29:06;19.70;99.90
35682;DHT22;21805;51.022;4.782;2023-07-28T04:31:32;19.70;99.90
35682;DHT22;21805;51.022;4.782;2023-07-28T04:33:59;19.70;99.90
35682;DHT22;21805;51.022;4.782;2023-07-28T04:36:26;19.70;99.90
35682;DHT22;21805;51.022;4.782;2023-07-28T04:38:51;19.70;99.90
35682;DHT22;21805;51.022;4.782;2023-07-28T04:41:17;19.70;99.90
35682;DHT22;21805;51.022;4.782;2023-07-28T04:43:42;19.70;99.90
35682;DHT22;21805;51.022;4.782;2023-07-28T04:46:11;19.70;99.90
35682;DHT22;21805;51.022;4.782;2023-07-28T04:48:37;19.70;99.90
35682;DHT22;21805;51.022;4.782;2023-07-28T04:51:02;19.70;99.90
35682;DHT22;21805;51.022;4.782;2023-07-28T04:53:28;19.70;99.90
35682;DHT22;21805;51.022;4.782;2023-07-28T04:55:54;19.70;99.90
35682;DHT22;21805;51.022;4.782;2023-07-28T04:58:20;19.70;99.90
35682;DHT22;21805;51.022;4.782;2023-07-28T05:00:46;19.70;99.90
35682;DHT22;21805;51.022;4.782;2023-07-28T05:03:13;19.70;99.90
35682;DHT22;21805;51.022;4.782;2023-07-28T05:05:43;19.70;99.90
35682;DHT22;21805;51.022;4.782;2023-07-28T05:08:09;19.80;99.90
35682;DHT22;21805;51.022;4.782;2023-07-28T05:10:40;19.80;99.90
35682;DHT22;21805;51.022;4.782;2023-07-28T05:13:05;19.80;99.90
35682;DHT22;21805;51.022;4.782;2023-07-28T05:15:31;19.80;99.90
35682;DHT22;21805;51.022;4.782;2023-07-28T05:17:57;19.80;99.90
35682;DHT22;21805;51.022;4.782;2023-07-28T05:20:23;19.80;99.90
35682;DHT22;21805;51.022;4.782;2023-07-28T05:22:49;19.80;99.90
35682;DHT22;21805;51.022;4.782;2023-07-28T05:25:15;19.90;99.90
35682;DHT22;21805;51.022;4.782;2023-07-28T05:27:41;20.00;99.90
35682;DHT22;21805;51.022;4.782;2023-07-28T05:30:07;20.00;99.90
35682;DHT22;21805;51.022;4.782;2023-07-28T05:32:33;20.00;99.90
35682;DHT22;21805;51.022;4.782;2023-07-28T05:34:58;20.00;99.90
35682;DHT22;21805;51.022;4.782;2023-07-28T05:37:24;20.00;99.90
35682;DHT22;21805;51.022;4.782;2023-07-28T05:39:49;20.00;99.90
35682;DHT22;21805;51.022;4.782;2023-07-28T05:42:15;20.00;99.90
35682;DHT22;21805;51.022;4.782;2023-07-28T05:44:41;20.10;99.90
35682;DHT22;21805;51.022;4.782;2023-07-28T05:47:06;20.10;99.90
35682;DHT22;21805;51.022;4.782;2023-07-28T05:49:32;20.10;99.90
35682;DHT22;21805;51.022;4.782;2023-07-28T05:51:59;20.10;99.90
35682;DHT22;21805;51.022;4.782;2023-07-28T05:54:27;20.10;99.90
35682;DHT22;21805;51.022;4.782;2023-07-28T06:04:49;20.10;99.90
35682;DHT22;21805;51.022;4.782;2023-07-28T07:54:54;22.10;99.90
35682;DHT22;21805;51.022;4.782;2023-07-28T07:57:24;22.40;99.90
35682;DHT22;21805;51.022;4.782;2023-07-28T08:02:33;22.40;99.90
35682;DHT22;21805;51.022;4.782;2023-07-28T08:04:58;22.60;99.90
35682;DHT22;21805;51.022;4.782;2023-07-28T08:07:24;22.60;99.90
35682;DHT22;21805;51.022;4.782;2023-07-28T08:09:55;22.50;99.90
35682;DHT22;21805;51.022;4.782;2023-07-28T08:12:24;22.60;99.90
35682;DHT22;21805;51.022;4.782;2023-07-28T08:14:58;22.70;99.90
35682;DHT22;21805;51.022;4.782;2023-07-28T08:22:24;23.20;99.90
35682;DHT22;21805;51.022;4.782;2023-07-28T08:27:19;23.70;99.90
35682;DHT22;21805;51.022;4.782;2023-07-28T08:32:14;23.90;99.90
35682;DHT22;21805;51.022;4.782;2023-07-28T08:37:25;23.60;99.90
35682;DHT22;21805;51.022;4.782;2023-07-28T08:39:51;23.40;99.90
35682;DHT22;21805;51.022;4.782;2023-07-28T08:42:20;23.30;99.90
35682;DHT22;21805;51.022;4.782;2023-07-28T08:44:56;23.30;99.90
35682;DHT22;21805;51.022;4.782;2023-07-28T08:47:24;23.30;99.90
35682;DHT22;21805;51.022;4.782;2023-07-28T08:49:50;23.40;99.90
35682;DHT22;21805;51.022;4.782;2023-07-28T08:52:16;23.50;99.90
35682;DHT22;21805;51.022;4.782;2023-07-28T08:54:59;23.60;99.90
35682;DHT22;21805;51.022;4.782;2023-07-28T08:57:30;23.60;99.90
35682;DHT22;21805;51.022;4.782;2023-07-28T09:00:05;23.70;99.90
35682;DHT22;21805;51.022;4.782;2023-07-28T09:02:31;23.70;99.90
35682;DHT22;21805;51.022;4.782;2023-07-28T09:05:17;23.60;99.90
35682;DHT22;21805;51.022;4.782;2023-07-28T09:10:51;23.50;99.90
35682;DHT22;21805;51.022;4.782;2023-07-28T09:16:01;23.20;99.90
35682;DHT22;21805;51.022;4.782;2023-07-28T09:18:33;23.30;99.90
35682;DHT22;21805;51.022;4.782;2023-07-28T09:20:58;23.50;99.90
35682;DHT22;21805;51.022;4.782;2023-07-28T09:23:43;23.70;99.90
35682;DHT22;21805;51.022;4.782;2023-07-28T09:26:13;23.80;99.90
35682;DHT22;21805;51.022;4.782;2023-07-28T09:28:41;24.00;99.90
35682;DHT22;21805;51.022;4.782;2023-07-28T09:31:10;23.90;99.90
35682;DHT22;21805;51.022;4.782;2023-07-28T09:33:44;23.80;99.90
35682;DHT22;21805;51.022;4.782;2023-07-28T09:36:16;23.80;99.90
35682;DHT22;21805;51.022;4.782;2023-07-28T09:41:12;23.90;99.90
35682;DHT22;21805;51.022;4.782;2023-07-28T09:43:38;23.90;99.90
35682;DHT22;21805;51.022;4.782;2023-07-28T09:46:07;24.00;99.90
35682;DHT22;21805;51.022;4.782;2023-07-28T09:48:34;23.90;99.90
35682;DHT22;21805;51.022;4.782;2023-07-28T09:56:31;24.10;99.90
35682;DHT22;21805;51.022;4.782;2023-07-28T09:59:01;24.00;99.90
35682;DHT22;21805;51.022;4.782;2023-07-28T10:01:29;24.00;99.90
35682;DHT22;21805;51.022;4.782;2023-07-28T10:04:14;24.10;99.90
35682;DHT22;21805;51.022;4.782;2023-07-28T10:09:10;24.00;99.90
35682;DHT22;21805;51.022;4.782;2023-07-28T10:11:37;24.00;99.90
35682;DHT22;21805;51.022;4.782;2023-07-28T10:14:03;24.00;99.90
35682;DHT22;21805;51.022;4.782;2023-07-28T10:16:41;23.90;99.90
35682;DHT22;21805;51.022;4.782;2023-07-28T10:19:08;23.80;99.90
35682;DHT22;21805;51.022;4.782;2023-07-28T10:21:38;23.70;99.90
35682;DHT22;21805;51.022;4.782;2023-07-28T10:24:06;23.70;99.90
35682;DHT22;21805;51.022;4.782;2023-07-28T10:26:39;23.60;99.90
35682;DHT22;21805;51.022;4.782;2023-07-28T10:29:15;23.60;99.90
35682;DHT22;21805;51.022;4.782;2023-07-28T10:34:22;23.40;99.90
35682;DHT22;21805;51.022;4.782;2023-07-28T10:37:01;23.40;99.90
35682;DHT22;21805;51.022;4.782;2023-07-28T10:44:35;23.50;99.90
35682;DHT22;21805;51.022;4.782;2023-07-28T10:49:31;24.30;99.90
35682;DHT22;21805;51.022;4.782;2023-07-28T11:30:58;24.00;99.90
35682;DHT22;21805;51.022;4.782;2023-07-28T11:33:28;24.20;99.90
35682;DHT22;21805;51.022;4.782;2023-07-28T11:35:59;24.50;99.90
35682;DHT22;21805;51.022;4.782;2023-07-28T11:38:45;24.70;99.90
35682;DHT22;21805;51.022;4.782;2023-07-28T11:41:25;24.80;99.90
35682;DHT22;21805;51.022;4.782;2023-07-28T11:46:56;24.90;99.90
35682;DHT22;21805;51.022;4.782;2023-07-28T11:49:29;24.90;99.90
35682;DHT22;21805;51.022;4.782;2023-07-28T11:54:36;24.40;99.90
35682;DHT22;21805;51.022;4.782;2023-07-28T11:57:02;24.40;99.90
35682;DHT22;21805;51.022;4.782;2023-07-28T11:59:30;24.40;99.90
35682;DHT22;21805;51.022;4.782;2023-07-28T12:07:10;24.60;99.90
35682;DHT22;21805;51.022;4.782;2023-07-28T12:09:50;24.70;99.90
35682;DHT22;21805;51.022;4.782;2023-07-28T12:12:24;24.70;99.90
35682;DHT22;21805;51.022;4.782;2023-07-28T12:14:51;24.80;99.90
35682;DHT22;21805;51.022;4.782;2023-07-28T12:17:24;25.20;99.90
35682;DHT22;21805;51.022;4.782;2023-07-28T12:20:04;25.50;99.90
35682;DHT22;21805;51.022;4.782;2023-07-28T12:22:39;25.90;99.90
35682;DHT22;21805;51.022;4.782;2023-07-28T12:25:11;26.20;99.90
35682;DHT22;21805;51.022;4.782;2023-07-28T12:27:40;26.40;99.90
35682;DHT22;21805;51.022;4.782;2023-07-28T12:30:19;26.30;99.90
35682;DHT22;21805;51.022;4.782;2023-07-28T12:32:47;25.90;99.90
35682;DHT22;21805;51.022;4.782;2023-07-28T12:35:36;25.40;99.90
35682;DHT22;21805;51.022;4.782;2023-07-28T12:51:20;25.20;99.90
35682;DHT22;21805;51.022;4.782;2023-07-28T12:53:49;25.80;99.90
35682;DHT22;21805;51.022;4.782;2023-07-28T12:56:16;26.40;99.90
35682;DHT22;21805;51.022;4.782;2023-07-28T13:03:40;26.80;99.90
35682;DHT22;21805;51.022;4.782;2023-07-28T13:06:12;26.90;99.90
35682;DHT22;21805;51.022;4.782;2023-07-28T13:11:06;27.10;99.90
35682;DHT22;21805;51.022;4.782;2023-07-28T13:13:35;27.20;99.90
35682;DHT22;21805;51.022;4.782;2023-07-28T13:16:01;27.10;99.90
35682;DHT22;21805;51.022;4.782;2023-07-28T13:20:58;27.20;99.90
35682;DHT22;21805;51.022;4.782;2023-07-28T13:23:24;27.30;99.90
35682;DHT22;21805;51.022;4.782;2023-07-28T13:25:50;27.20;99.90
35682;DHT22;21805;51.022;4.782;2023-07-28T13:28:25;26.80;99.90
35682;DHT22;21805;51.022;4.782;2023-07-28T13:33:32;26.30;99.90
35682;DHT22;21805;51.022;4.782;2023-07-28T13:36:03;26.60;99.90
35682;DHT22;21805;51.022;4.782;2023-07-28T13:38:32;27.10;99.90
35682;DHT22;21805;51.022;4.782;2023-07-28T13:41:04;27.20;99.90
35682;DHT22;21805;51.022;4.782;2023-07-28T13:43:32;27.50;99.90
35682;DHT22;21805;51.022;4.782;2023-07-28T13:46:07;27.60;99.90
35682;DHT22;21805;51.022;4.782;2023-07-28T13:48:34;27.30;99.90
35682;DHT22;21805;51.022;4.782;2023-07-28T13:51:02;27.20;99.90
35682;DHT22;21805;51.022;4.782;2023-07-28T13:53:30;27.10;99.90
35682;DHT22;21805;51.022;4.782;2023-07-28T13:56:03;27.00;99.90
35682;DHT22;21805;51.022;4.782;2023-07-28T13:58:32;27.40;99.90
35682;DHT22;21805;51.022;4.782;2023-07-28T14:03:32;27.70;99.90
35682;DHT22;21805;51.022;4.782;2023-07-28T14:06:01;27.90;99.90
35682;DHT22;21805;51.022;4.782;2023-07-28T14:08:27;27.80;99.90
35682;DHT22;21805;51.022;4.782;2023-07-28T14:10:52;27.80;99.90
35682;DHT22;21805;51.022;4.782;2023-07-28T14:13:18;27.40;99.90
35682;DHT22;21805;51.022;4.782;2023-07-28T14:15:49;27.10;99.90
35682;DHT22;21805;51.022;4.782;2023-07-28T14:18:16;26.90;99.90
35682;DHT22;21805;51.022;4.782;2023-07-28T14:20:45;26.90;99.90
35682;DHT22;21805;51.022;4.782;2023-07-28T14:23:24;26.90;99.90
35682;DHT22;21805;51.022;4.782;2023-07-28T14:25:52;26.90;99.90
35682;DHT22;21805;51.022;4.782;2023-07-28T14:28:21;27.10;99.90
35682;DHT22;21805;51.022;4.782;2023-07-28T14:30:47;27.60;99.90
35682;DHT22;21805;51.022;4.782;2023-07-28T14:33:15;28.10;99.90
35682;DHT22;21805;51.022;4.782;2023-07-28T14:35:42;28.40;99.90
35682;DHT22;21805;51.022;4.782;2023-07-28T14:38:09;28.60;99.90
35682;DHT22;21805;51.022;4.782;2023-07-28T14:43:07;28.80;99.90
35682;DHT22;21805;51.022;4.782;2023-07-28T14:45:35;28.70;99.90
35682;DHT22;21805;51.022;4.782;2023-07-28T14:48:01;28.30;99.90
35682;DHT22;21805;51.022;4.782;2023-07-28T14:50:27;28.10;99.90
35682;DHT22;21805;51.022;4.782;2023-07-28T14:52:57;27.60;99.90
35682;DHT22;21805;51.022;4.782;2023-07-28T14:55:22;27.40;99.90
35682;DHT22;21805;51.022;4.782;2023-07-28T15:00:21;27.30;99.90
35682;DHT22;21805;51.022;4.782;2023-07-28T15:02:47;27.20;99.90
35682;DHT22;21805;51.022;4.782;2023-07-28T15:05:14;27.20;99.90
35682;DHT22;21805;51.022;4.782;2023-07-28T15:07:40;27.10;99.90
35682;DHT22;21805;51.022;4.782;2023-07-28T15:10:06;27.00;99.90
35682;DHT22;21805;51.022;4.782;2023-07-28T15:12:32;26.70;99.90
35682;DHT22;21805;51.022;4.782;2023-07-28T15:14:58;26.60;99.90
35682;DHT22;21805;51.022;4.782;2023-07-28T15:17:25;26.70;99.90
35682;DHT22;21805;51.022;4.782;2023-07-28T15:19:51;27.10;99.90
35682;DHT22;21805;51.022;4.782;2023-07-28T15:22:16;27.50;99.90
35682;DHT22;21805;51.022;4.782;2023-07-28T15:24:44;28.00;99.90
35682;DHT22;21805;51.022;4.782;2023-07-28T15:29:55;28.60;99.90
35682;DHT22;21805;51.022;4.782;2023-07-28T15:32:31;28.50;99.90
35682;DHT22;21805;51.022;4.782;2023-07-28T15:34:58;28.20;99.90
35682;DHT22;21805;51.022;4.782;2023-07-28T15:39:59;28.00;99.90
35682;DHT22;21805;51.022;4.782;2023-07-28T15:42:25;28.20;99.90
35682;DHT22;21805;51.022;4.782;2023-07-28T15:44:53;28.30;99.90
35682;DHT22;21805;51.022;4.782;2023-07-28T15:47:18;28.50;99.90
35682;DHT22;21805;51.022;4.782;2023-07-28T15:49:45;28.40;99.90
35682;DHT22;21805;51.022;4.782;2023-07-28T15:52:10;28.30;99.90
35682;DHT22;21805;51.022;4.782;2023-07-28T15:54:36;28.10;99.90
35682;DHT22;21805;51.022;4.782;2023-07-28T15:57:01;28.10;99.90
35682;DHT22;21805;51.022;4.782;2023-07-28T15:59:30;28.10;99.90
35682;DHT22;21805;51.022;4.782;2023-07-28T16:01:57;27.90;99.90
35682;DHT22;21805;51.022;4.782;2023-07-28T16:04:22;27.60;99.90
35682;DHT22;21805;51.022;4.782;2023-07-28T16:06:48;27.40;99.90
35682;DHT22;21805;51.022;4.782;2023-07-28T16:09:14;27.00;99.90
35682;DHT22;21805;51.022;4.782;2023-07-28T16:11:39;27.00;99.90
35682;DHT22;21805;51.022;4.782;2023-07-28T16:14:05;26.80;99.90
35682;DHT22;21805;51.022;4.782;2023-07-28T16:16:30;26.70;99.90
35682;DHT22;21805;51.022;4.782;2023-07-28T16:18:56;26.50;99.90
35682;DHT22;21805;51.022;4.782;2023-07-28T16:21:22;26.40;99.90
35682;DHT22;21805;51.022;4.782;2023-07-28T16:23:47;26.30;99.90
35682;DHT22;21805;51.022;4.782;2023-07-28T16:26:14;26.20;99.90
35682;DHT22;21805;51.022;4.782;2023-07-28T16:28:39;26.10;99.90
35682;DHT22;21805;51.022;4.782;2023-07-28T16:31:05;26.10;99.90
35682;DHT22;21805;51.022;4.782;2023-07-28T16:33:30;26.10;99.90
35682;DHT22;21805;51.022;4.782;2023-07-28T16:35:58;26.10;99.90
35682;DHT22;21805;51.022;4.782;2023-07-28T16:38:24;26.20;99.90
35682;DHT22;21805;51.022;4.782;2023-07-28T16:40:50;26.20;99.90
35682;DHT22;21805;51.022;4.782;2023-07-28T16:43:15;26.20;99.90
35682;DHT22;21805;51.022;4.782;2023-07-28T16:45:42;26.10;99.90
35682;DHT22;21805;51.022;4.782;2023-07-28T16:48:07;26.20;99.90
35682;DHT22;21805;51.022;4.782;2023-07-28T16:50:33;26.20;99.90
35682;DHT22;21805;51.022;4.782;2023-07-28T16:52:58;26.20;99.90
35682;DHT22;21805;51.022;4.782;2023-07-28T16:55:24;26.10;99.90
35682;DHT22;21805;51.022;4.782;2023-07-28T16:57:50;26.00;99.90
35682;DHT22;21805;51.022;4.782;2023-07-28T17:00:16;25.90;99.90
35682;DHT22;21805;51.022;4.782;2023-07-28T17:02:42;25.90;99.90
35682;DHT22;21805;51.022;4.782;2023-07-28T17:05:08;25.80;99.90
35682;DHT22;21805;51.022;4.782;2023-07-28T17:07:35;25.70;99.90
35682;DHT22;21805;51.022;4.782;2023-07-28T17:10:01;25.70;99.90
35682;DHT22;21805;51.022;4.782;2023-07-28T17:12:26;25.70;99.90
35682;DHT22;21805;51.022;4.782;2023-07-28T17:14:52;25.70;99.90
35682;DHT22;21805;51.022;4.782;2023-07-28T17:17:18;25.70;99.90
35682;DHT22;21805;51.022;4.782;2023-07-28T17:19:44;25.70;99.90
35682;DHT22;21805;51.022;4.782;2023-07-28T17:22:10;25.50;99.90
35682;DHT22;21805;51.022;4.782;2023-07-28T17:24:36;25.50;99.90
35682;DHT22;21805;51.022;4.782;2023-07-28T17:27:01;25.50;99.90
35682;DHT22;21805;51.022;4.782;2023-07-28T17:29:27;25.50;99.90
35682;DHT22;21805;51.022;4.782;2023-07-28T17:31:53;25.40;99.90
35682;DHT22;21805;51.022;4.782;2023-07-28T17:34:18;25.40;99.90
35682;DHT22;21805;51.022;4.782;2023-07-28T17:36:44;25.40;99.90
35682;DHT22;21805;51.022;4.782;2023-07-28T17:39:09;25.40;99.90
35682;DHT22;21805;51.022;4.782;2023-07-28T17:41:35;25.30;99.90
35682;DHT22;21805;51.022;4.782;2023-07-28T17:44:03;25.30;99.90
35682;DHT22;21805;51.022;4.782;2023-07-28T17:46:28;25.20;99.90
35682;DHT22;21805;51.022;4.782;2023-07-28T17:48:54;25.30;99.90
35682;DHT22;21805;51.022;4.782;2023-07-28T17:51:19;25.20;99.90
35682;DHT22;21805;51.022;4.782;2023-07-28T17:53:45;25.20;99.90
35682;DHT22;21805;51.022;4.782;2023-07-28T17:56:10;25.20;99.90
35682;DHT22;21805;51.022;4.782;2023-07-28T17:58:37;25.20;99.90
35682;DHT22;21805;51.022;4.782;2023-07-28T18:01:03;25.20;99.90
35682;DHT22;21805;51.022;4.782;2023-07-28T18:03:28;25.20;99.90
35682;DHT22;21805;51.022;4.782;2023-07-28T18:05:54;25.20;99.90
35682;DHT22;21805;51.022;4.782;2023-07-28T18:08:21;25.30;99.90
35682;DHT22;21805;51.022;4.782;2023-07-28T18:10:47;25.30;99.90
35682;DHT22;21805;51.022;4.782;2023-07-28T18:13:12;25.30;99.90
35682;DHT22;21805;51.022;4.782;2023-07-28T18:15:40;25.30;99.90
35682;DHT22;21805;51.022;4.782;2023-07-28T18:18:05;25.30;99.90
35682;DHT22;21805;51.022;4.782;2023-07-28T18:20:32;25.20;99.90
35682;DHT22;21805;51.022;4.782;2023-07-28T18:22:58;25.10;99.90
35682;DHT22;21805;51.022;4.782;2023-07-28T18:25:23;25.00;99.90
35682;DHT22;21805;51.022;4.782;2023-07-28T18:27:49;24.80;99.90
35682;DHT22;21805;51.022;4.782;2023-07-28T18:30:16;24.80;99.90
35682;DHT22;21805;51.022;4.782;2023-07-28T18:32:43;24.70;99.90
35682;DHT22;21805;51.022;4.782;2023-07-28T18:35:09;24.60;99.90
35682;DHT22;21805;51.022;4.782;2023-07-28T18:37:34;24.60;99.90
35682;DHT22;21805;51.022;4.782;2023-07-28T18:40:00;24.50;99.90
35682;DHT22;21805;51.022;4.782;2023-07-28T18:42:26;24.50;99.90
35682;DHT22;21805;51.022;4.782;2023-07-28T18:44:51;24.50;99.90
35682;DHT22;21805;51.022;4.782;2023-07-28T18:47:17;24.40;99.90
35682;DHT22;21805;51.022;4.782;2023-07-28T18:49:45;24.50;99.90
35682;DHT22;21805;51.022;4.782;2023-07-28T18:52:12;24.40;99.90
35682;DHT22;21805;51.022;4.782;2023-07-28T18:54:38;24.40;99.90
35682;DHT22;21805;51.022;4.782;2023-07-28T18:57:04;24.40;99.90
35682;DHT22;21805;51.022;4.782;2023-07-28T18:59:29;24.50;99.90
35682;DHT22;21805;51.022;4.782;2023-07-28T19:01:55;24.30;99.90
35682;DHT22;21805;51.022;4.782;2023-07-28T19:04:22;24.30;99.90
35682;DHT22;21805;51.022;4.782;2023-07-28T19:06:48;24.30;99.90
35682;DHT22;21805;51.022;4.782;2023-07-28T19:09:13;24.40;99.90
35682;DHT22;21805;51.022;4.782;2023-07-28T19:11:39;24.20;99.90
35682;DHT22;21805;51.022;4.782;2023-07-28T19:14:05;24.20;99.90
35682;DHT22;21805;51.022;4.782;2023-07-28T19:16:31;24.10;99.90
35682;DHT22;21805;51.022;4.782;2023-07-28T19:18:57;24.10;99.90
35682;DHT22;21805;51.022;4.782;2023-07-28T19:21:23;24.00;99.90
35682;DHT22;21805;51.022;4.782;2023-07-28T19:23:50;24.00;99.90
35682;DHT22;21805;51.022;4.782;2023-07-28T19:26:17;24.00;99.90
35682;DHT22;21805;51.022;4.782;2023-07-28T19:28:43;24.00;99.90
35682;DHT22;21805;51.022;4.782;2023-07-28T19:31:10;24.00;99.90
35682;DHT22;21805;51.022;4.782;2023-07-28T19:33:35;24.00;99.90
35682;DHT22;21805;51.022;4.782;2023-07-28T19:36:02;24.00;99.90
35682;DHT22;21805;51.022;4.782;2023-07-28T19:38:28;23.90;99.90
35682;DHT22;21805;51.022;4.782;2023-07-28T19:40:53;23.70;99.90
35682;DHT22;21805;51.022;4.782;2023-07-28T19:43:19;23.60;99.90